Time;durP1;ratioP1;P1;durP2;ratioP2;P2;SDS_P1;SDS_P2;PMS_P1;PMS_P2;Temp;Humidity;BMP_temperature;BMP_pressure;BME280_temperature;BME280_humidity;BME280_pressure;Samples;Min_cycle;Max_cycle;Signal;HPM_P1;HPM_P2
2023/01/14 00:00:00;;;;;;;16.21;5.45;;;;;;;0.22;73.49;101895.05;466688;113;922500;-73
2023/01/14 00:01:15;;;;;;;11.52;5.44;;;;;;;0.21;73.59;101892.51;466405;113;922481;-74
2023/01/14 00:02:18;;;;;;;19.40;5.06;;;;;;;0.21;73.50;101898.73;465847;113;922598;-74
2023/01/14 00:03:21;;;;;;;14.56;5.26;;;;;;;0.22;73.60;101899.59;466589;113;922700;-73
2023/01/14 00:04:24;;;;;;;11.71;5.59;;;;;;;0.23;73.52;101898.59;466617;113;922458;-74
2023/01/14 00:05:27;;;;;;;13.25;5.14;;;;;;;0.24;73.52;101900.30;466626;113;922490;-74
2023/01/14 00:06:33;;;;;;;14.29;5.39;;;;;;;0.24;73.46;101897.63;466601;113;922474;-74
2023/01/14 00:07:36;;;;;;;19.19;5.13;;;;;;;0.24;73.48;101902.98;466418;113;922959;-76
2023/01/14 00:08:40;;;;;;;17.50;5.21;;;;;;;0.23;73.48;101899.45;466650;113;922429;-75
2023/01/14 00:09:43;;;;;;;16.21;5.09;;;;;;;0.23;73.44;101891.40;466600;113;922617;-74
2023/01/14 00:10:46;;;;;;;16.42;4.64;;;;;;;0.23;73.46;101891.40;466496;113;922503;-75
2023/01/14 00:11:50;;;;;;;15.11;5.66;;;;;;;0.23;73.36;101891.40;466617;113;922543;-74
2023/01/14 00:12:57;;;;;;;16.57;5.84;;;;;;;0.24;73.34;101894.94;466569;113;922563;-74
2023/01/14 00:14:00;;;;;;;18.77;5.63;;;;;;;0.24;73.32;101886.90;466363;113;930537;-74
2023/01/14 00:15:04;;;;;;;18.17;4.97;;;;;;;0.25;73.27;101892.16;466650;113;922781;-75
2023/01/14 00:16:13;;;;;;;10.74;5.04;;;;;;;0.24;73.29;101890.44;466542;113;923352;-76
2023/01/14 00:17:16;;;;;;;9.53;4.98;;;;;;;0.24;73.25;101890.44;466413;113;922586;-75
2023/01/14 00:18:20;;;;;;;10.26;4.97;;;;;;;0.23;73.23;101886.04;466573;113;922478;-74
2023/01/14 00:19:39;;;;;;;11.53;4.47;;;;;;;0.24;73.22;101894.94;466358;113;930466;-74
2023/01/14 00:20:42;;;;;;;12.09;5.16;;;;;;;0.23;73.22;101885.18;466618;113;922440;-75
2023/01/14 00:21:45;;;;;;;16.30;4.58;;;;;;;0.22;73.21;101892.37;466596;113;922507;-74
2023/01/14 00:22:48;;;;;;;11.52;5.03;;;;;;;0.23;73.13;101885.18;466622;113;922440;-76
2023/01/14 00:23:53;;;;;;;14.24;4.69;;;;;;;0.24;73.13;101892.26;458100;113;922501;-74
2023/01/14 00:24:57;;;;;;;14.49;5.22;;;;;;;0.25;73.15;101889.47;457277;116;922877;-74
2023/01/14 00:26:09;;;;;;;12.49;5.49;;;;;;;0.26;73.10;101896.55;457397;115;922413;-75
2023/01/14 00:27:12;;;;;;;9.99;5.18;;;;;;;0.27;73.20;101895.59;462468;114;922647;-75
2023/01/14 00:28:15;;;;;;;19.95;5.62;;;;;;;0.29;73.14;101890.08;463234;114;922779;-73
2023/01/14 00:29:24;;;;;;;13.13;5.96;;;;;;;0.31;73.08;101889.01;463217;114;922668;-76
2023/01/14 00:30:27;;;;;;;12.01;5.54;;;;;;;0.31;73.04;101891.69;457526;114;922878;-75
2023/01/14 00:31:30;;;;;;;9.04;4.62;;;;;;;0.32;72.99;101892.55;457409;115;922486;-74
2023/01/14 00:32:33;;;;;;;8.65;4.56;;;;;;;0.31;73.02;101880.10;457477;114;922845;-74
2023/01/14 00:33:37;;;;;;;11.85;4.94;;;;;;;0.30;72.86;101881.06;457547;114;922562;-74
2023/01/14 00:34:40;;;;;;;11.71;4.68;;;;;;;0.29;72.94;101882.89;457506;115;923098;-75
2023/01/14 00:35:43;;;;;;;17.47;4.84;;;;;;;0.28;72.74;101885.69;457285;116;922535;-74
2023/01/14 00:36:46;;;;;;;10.96;5.35;;;;;;;0.25;72.80;101884.11;459184;115;922880;-75
2023/01/14 00:37:49;;;;;;;11.79;5.22;;;;;;;0.24;72.80;101881.53;461750;115;923007;-74
2023/01/14 00:38:54;;;;;;;13.99;5.42;;;;;;;0.21;72.79;101885.32;459194;115;922617;-73
2023/01/14 00:39:57;;;;;;;9.23;4.61;;;;;;;0.20;72.76;101885.42;457333;116;922559;-74
2023/01/14 00:41:12;;;;;;;12.96;4.49;;;;;;;0.17;72.58;101880.28;458040;115;930503;-75
2023/01/14 00:42:15;;;;;;;18.58;5.42;;;;;;;0.14;72.69;101881.38;457314;114;922828;-73
2023/01/14 00:43:18;;;;;;;14.03;5.08;;;;;;;0.13;72.68;101889.53;457500;116;922546;-74
2023/01/14 00:44:21;;;;;;;10.66;5.30;;;;;;;0.13;72.76;101889.53;457551;115;922674;-75
2023/01/14 00:45:24;;;;;;;10.42;5.67;;;;;;;0.13;72.87;101887.71;458085;115;922861;-75
2023/01/14 00:46:33;;;;;;;8.93;4.15;;;;;;;0.15;72.91;101882.24;457505;116;922553;-75
2023/01/14 00:47:36;;;;;;;14.48;4.74;;;;;;;0.17;72.95;101882.95;457459;115;923336;-75
2023/01/14 00:48:40;;;;;;;11.31;4.67;;;;;;;0.18;72.78;101879.31;457486;116;922600;-74
2023/01/14 00:49:43;;;;;;;12.28;4.27;;;;;;;0.21;72.74;101889.83;457474;115;922937;-76
2023/01/14 00:50:48;;;;;;;12.67;4.91;;;;;;;0.21;72.69;101882.64;457181;115;922546;-74
2023/01/14 00:51:51;;;;;;;10.69;4.36;;;;;;;0.23;72.75;101886.04;461414;115;922861;-74
2023/01/14 00:52:54;;;;;;;13.02;4.34;;;;;;;0.24;72.55;101881.53;461689;115;922542;-74
2023/01/14 00:54:00;;;;;;;9.32;4.77;;;;;;;0.24;72.50;101887.75;457842;114;922980;-74
2023/01/14 00:55:04;;;;;;;10.48;4.06;;;;;;;0.25;72.45;101884.11;458563;113;922504;-75
2023/01/14 00:56:08;;;;;;;10.29;3.75;;;;;;;0.26;72.45;101883.14;461139;113;923114;-75
2023/01/14 00:57:14;;;;;;;9.99;4.41;;;;;;;0.27;72.50;101879.49;458040;114;922535;-74
2023/01/14 00:58:16;;;;;;;7.98;3.64;;;;;;;0.29;72.46;101879.35;457306;116;922573;-74
2023/01/14 00:59:22;;;;;;;7.30;3.91;;;;;;;0.30;72.43;101876.56;457406;114;922539;-74
2023/01/14 01:00:27;;;;;;;9.33;3.81;;;;;;;0.31;72.51;101883.64;457300;116;922497;-74
2023/01/14 01:01:31;;;;;;;12.24;4.75;;;;;;;0.33;72.35;101879.00;457421;115;922788;-75
2023/01/14 01:02:34;;;;;;;8.91;4.02;;;;;;;0.33;72.33;101880.85;458092;114;930563;-75
2023/01/14 01:03:40;;;;;;;11.25;4.31;;;;;;;0.32;72.36;101876.45;450356;117;922590;-75
2023/01/14 01:04:44;;;;;;;9.32;3.93;;;;;;;0.31;72.19;101870.23;444148;117;923228;-74
2023/01/14 01:05:47;;;;;;;12.23;5.01;;;;;;;0.30;72.25;101881.92;453076;115;922669;-75
2023/01/14 01:06:50;;;;;;;10.41;4.53;;;;;;;0.28;72.20;101878.49;461296;115;922623;-75
2023/01/14 01:07:54;;;;;;;13.08;5.94;;;;;;;0.25;71.96;101878.74;461655;115;922890;-74
2023/01/14 01:09:00;;;;;;;10.94;5.07;;;;;;;0.23;71.91;101880.67;459863;115;923335;-75
2023/01/14 01:10:03;;;;;;;12.66;7.66;;;;;;;0.20;71.80;101874.70;459542;115;922444;-74
2023/01/14 01:11:07;;;;;;;11.03;7.45;;;;;;;0.18;71.90;101882.00;455651;116;922925;-74
2023/01/14 01:12:11;;;;;;;8.47;5.76;;;;;;;0.16;71.87;101879.45;455581;114;930517;-75
2023/01/14 01:13:14;;;;;;;14.41;6.03;;;;;;;0.16;71.93;101875.91;458810;115;922465;-75
2023/01/14 01:14:18;;;;;;;10.99;5.29;;;;;;;0.17;72.10;101886.50;456867;115;922486;-75
2023/01/14 01:15:21;;;;;;;12.76;5.79;;;;;;;0.18;72.04;101876.63;461234;115;923094;-74
2023/01/14 01:16:24;;;;;;;10.60;5.00;;;;;;;0.20;72.17;101880.92;461196;115;930501;-74
2023/01/14 01:17:28;;;;;;;10.43;4.88;;;;;;;0.22;72.10;101883.50;461668;115;922560;-74
2023/01/14 01:18:32;;;;;;;10.89;5.38;;;;;;;0.24;72.07;101877.02;456272;114;922510;-75
2023/01/14 01:19:35;;;;;;;8.06;4.17;;;;;;;0.26;72.12;101876.92;457179;116;922970;-73
2023/01/14 01:20:39;;;;;;;8.96;4.37;;;;;;;0.28;72.05;101881.17;457165;116;923083;-75
2023/01/14 01:21:42;;;;;;;10.32;3.57;;;;;;;0.28;72.12;101878.49;457324;114;922462;-74
2023/01/14 01:22:45;;;;;;;7.06;4.16;;;;;;;0.29;71.93;101871.30;458925;115;922708;-75
2023/01/14 01:23:48;;;;;;;10.61;4.55;;;;;;;0.28;71.95;101878.49;458053;114;922570;-74
2023/01/14 01:24:52;;;;;;;8.21;3.87;;;;;;;0.28;71.85;101878.49;457528;115;922491;-74
2023/01/14 01:25:59;;;;;;;5.45;2.86;;;;;;;0.26;71.84;101872.41;461789;115;922493;-74
2023/01/14 01:27:03;;;;;;;6.48;3.23;;;;;;;0.26;71.86;101868.88;460851;115;922533;-74
2023/01/14 01:28:06;;;;;;;7.56;3.31;;;;;;;0.26;71.98;101872.41;458975;114;922461;-73
2023/01/14 01:29:10;;;;;;;9.02;3.95;;;;;;;0.26;71.87;101877.77;458009;114;922506;-75
2023/01/14 01:30:13;;;;;;;8.47;3.39;;;;;;;0.25;71.99;101868.02;457471;116;922743;-74
2023/01/14 01:31:17;;;;;;;17.81;3.46;;;;;;;0.25;71.84;101869.84;457387;115;922564;-75
2023/01/14 01:32:20;;;;;;;8.13;3.71;;;;;;;0.25;71.97;101870.70;457492;113;923186;-73
2023/01/14 01:33:23;;;;;;;8.24;3.06;;;;;;;0.26;72.02;101876.92;457301;115;930442;-75
2023/01/14 01:34:27;;;;;;;14.72;3.81;;;;;;;0.26;72.02;101877.77;457239;114;930478;-74
2023/01/14 01:35:30;;;;;;;8.64;2.92;;;;;;;0.27;71.87;101868.77;457284;115;922954;-75
2023/01/14 01:36:35;;;;;;;8.61;3.20;;;;;;;0.29;71.79;101863.26;458261;115;922971;-74
2023/01/14 01:37:40;;;;;;;7.62;3.29;;;;;;;0.29;71.89;101868.63;458138;115;922562;-75
2023/01/14 01:38:45;;;;;;;12.88;4.19;;;;;;;0.30;71.79;101864.97;457949;115;922592;-74
2023/01/14 01:39:48;;;;;;;7.31;3.29;;;;;;;0.30;71.79;101865.83;457259;116;922505;-74
2023/01/14 01:40:51;;;;;;;11.97;3.71;;;;;;;0.31;71.75;101864.01;457472;115;922613;-74
2023/01/14 01:41:56;;;;;;;9.84;3.68;;;;;;;0.31;71.71;101864.86;457227;114;923037;-75
2023/01/14 01:43:00;;;;;;;11.04;3.24;;;;;;;0.33;71.70;101868.27;457450;115;922496;-75
2023/01/14 01:44:14;;;;;;;7.42;3.58;;;;;;;0.32;71.73;101866.58;456883;115;922507;-75
2023/01/14 01:45:46;;;;;;;9.42;3.72;;;;;;;0.32;71.57;101869.27;457339;115;922560;-75
2023/01/14 01:46:49;;;;;;;10.65;3.86;;;;;;;0.31;71.65;101864.01;457296;114;922970;-74
2023/01/14 01:47:59;;;;;;;10.63;4.75;;;;;;;0.29;71.47;101866.80;457517;116;922636;-75
2023/01/14 01:49:18;;;;;;;7.16;3.50;;;;;;;0.27;71.45;101868.77;457156;116;922510;-75
2023/01/14 01:50:22;;;;;;;6.84;3.70;;;;;;;0.26;71.47;101868.88;457307;116;922619;-74
2023/01/14 01:51:28;;;;;;;7.25;3.47;;;;;;;0.24;71.48;101871.66;457386;116;922777;-75
2023/01/14 01:52:31;;;;;;;9.70;3.97;;;;;;;0.22;71.63;101868.23;457222;114;923446;-75
2023/01/14 01:53:37;;;;;;;7.79;4.19;;;;;;;0.23;71.67;101875.31;457457;114;922582;-74
2023/01/14 01:54:44;;;;;;;8.61;3.22;;;;;;;0.23;71.56;101867.27;449017;118;922942;-75
2023/01/14 01:55:50;;;;;;;7.58;3.61;;;;;;;0.23;71.62;101869.95;449171;114;922573;-74
2023/01/14 01:56:55;;;;;;;6.79;3.43;;;;;;;0.23;71.58;101875.31;449015;116;922508;-74
2023/01/14 01:57:58;;;;;;;10.41;3.46;;;;;;;0.23;71.54;101869.95;449095;118;922563;-73
2023/01/14 01:59:05;;;;;;;9.67;3.67;;;;;;;0.24;71.52;101863.61;453296;114;922566;-74
2023/01/14 02:00:09;;;;;;;9.26;4.13;;;;;;;0.26;71.65;101874.23;457331;116;922517;-74
2023/01/14 02:01:18;;;;;;;6.59;3.65;;;;;;;0.26;71.49;101867.05;452616;114;922501;-74
2023/01/14 02:02:23;;;;;;;7.81;3.72;;;;;;;0.28;71.57;101870.45;457417;114;922613;-75
2023/01/14 02:03:30;;;;;;;6.52;3.08;;;;;;;0.28;71.50;101870.45;457325;116;922910;-75
2023/01/14 02:04:33;;;;;;;7.29;3.38;;;;;;;0.30;71.57;101875.70;457943;114;922476;-75
2023/01/14 02:05:38;;;;;;;9.62;4.03;;;;;;;0.30;71.52;101875.70;453956;116;922562;-75
2023/01/14 02:06:41;;;;;;;9.45;3.42;;;;;;;0.30;71.41;101875.70;454344;114;930581;-75
2023/01/14 02:07:45;;;;;;;9.42;4.29;;;;;;;0.30;71.38;101873.02;462266;114;922560;-74
2023/01/14 02:08:51;;;;;;;6.54;3.16;;;;;;;0.30;71.31;101871.20;452806;116;922580;-75
2023/01/14 02:09:57;;;;;;;7.72;3.49;;;;;;;0.30;71.29;101876.56;451365;116;922676;-74
2023/01/14 02:11:16;;;;;;;9.16;3.67;;;;;;;0.31;71.33;101872.91;460482;115;922595;-75
2023/01/14 02:12:36;;;;;;;6.03;3.43;;;;;;;0.33;71.42;101873.63;443474;117;923384;-74
2023/01/14 02:13:52;;;;;;;8.45;3.78;;;;;;;0.35;71.43;101879.75;453642;115;922731;-75
2023/01/14 02:15:20;;;;;;;9.12;3.52;;;;;;;0.37;71.41;101879.64;457242;116;922462;-74
2023/01/14 02:16:36;;;;;;;5.88;2.87;;;;;;;0.37;71.22;101875.13;459019;115;922588;-74
2023/01/14 02:18:03;;;;;;;10.14;3.37;;;;;;;0.36;71.23;101877.92;456380;116;922658;-74
2023/01/14 02:19:12;;;;;;;13.21;3.76;;;;;;;0.34;71.15;101878.03;456200;114;922662;-74
2023/01/14 02:20:23;;;;;;;8.49;3.64;;;;;;;0.34;71.24;101875.34;457257;116;922532;-75
2023/01/14 02:21:28;;;;;;;;;;;;;;;0.36;71.34;101878.78;458669;115;922355;-75
2023/01/14 02:22:51;;;;;;;6.06;3.32;;;;;;;0.38;71.37;101875.98;461087;115;922298;-75
2023/01/14 02:23:59;;;;;;;7.28;3.34;;;;;;;0.37;71.25;101874.27;459406;115;922631;-74
2023/01/14 02:25:14;;;;;;;9.53;3.90;;;;;;;0.37;71.32;101883.17;457265;116;922606;-75
2023/01/14 02:26:42;;;;;;;7.32;3.21;;;;;;;0.37;71.34;101877.81;457299;115;922779;-75
2023/01/14 02:27:49;;;;;;;9.36;3.54;;;;;;;0.37;71.41;101877.81;457213;116;922920;-74
2023/01/14 02:29:30;;;;;;;12.79;4.17;;;;;;;0.38;71.29;101884.03;457155;114;922542;-74
2023/01/14 02:30:37;;;;;;;6.73;3.21;;;;;;;0.39;71.14;101881.21;449900;117;922709;-75
2023/01/14 02:31:49;;;;;;;8.67;3.39;;;;;;;0.37;70.99;101880.50;447932;116;922913;-75
2023/01/14 02:33:10;;;;;;;8.41;3.56;;;;;;;0.35;70.99;101879.75;449402;118;922510;-74
2023/01/14 02:34:20;;;;;;;7.97;3.56;;;;;;;0.35;71.02;101882.42;446567;116;922755;-75
2023/01/14 02:35:30;;;;;;;8.91;4.12;;;;;;;0.35;71.01;101874.37;451039;116;922567;-75
2023/01/14 02:36:37;;;;;;;9.03;3.73;;;;;;;0.35;71.16;101882.42;457347;115;922989;-75
2023/01/14 02:37:44;;;;;;;9.17;4.12;;;;;;;0.36;71.08;101878.78;455567;116;922376;-74
2023/01/14 02:38:54;;;;;;;8.88;4.18;;;;;;;0.38;71.14;101879.53;454613;114;922611;-76
2023/01/14 02:40:31;;;;;;;7.00;3.74;;;;;;;0.39;70.93;101881.21;457309;116;922571;-75
2023/01/14 02:44:34;;;;;;;7.37;3.47;;;;;;;0.38;70.81;101878.67;455167;115;922561;-75
2023/01/14 02:45:43;;;;;;;13.85;4.20;;;;;;;0.37;70.97;101880.50;454153;115;930482;-74
2023/01/14 02:46:56;;;;;;;8.19;3.53;;;;;;;0.37;70.83;101876.95;461551;114;922558;-74
2023/01/14 02:48:02;;;;;;;10.93;3.44;;;;;;;0.36;70.81;101876.09;458478;114;922732;-75
2023/01/14 02:49:10;;;;;;;10.89;4.14;;;;;;;0.36;70.84;101881.46;456230;114;922566;-74
2023/01/14 02:50:15;;;;;;;13.98;4.39;;;;;;;0.38;70.94;101876.84;457272;115;922674;-73
2023/01/14 02:51:20;;;;;;;9.10;3.31;;;;;;;0.39;70.83;101883.89;457441;115;922450;-73
2023/01/14 02:52:24;;;;;;;8.06;3.86;;;;;;;0.41;70.90;101873.05;457303;114;922512;-74
2023/01/14 02:53:28;;;;;;;10.62;4.06;;;;;;;0.41;70.84;101876.59;457060;115;922729;-75
2023/01/14 02:54:32;;;;;;;8.54;3.98;;;;;;;0.44;70.55;101874.66;457204;116;930468;-73
2023/01/14 02:55:37;;;;;;;7.51;3.48;;;;;;;0.44;70.55;101874.66;456911;114;922855;-75
2023/01/14 02:56:42;;;;;;;8.73;3.63;;;;;;;0.45;70.71;101871.84;457190;114;922566;-74
2023/01/14 02:57:52;;;;;;;6.45;3.31;;;;;;;0.46;70.53;101875.38;457749;115;922609;-73
2023/01/14 02:59:07;;;;;;;8.68;3.44;;;;;;;0.47;70.50;101871.73;459742;115;922897;-74
2023/01/14 03:00:18;;;;;;;8.88;3.12;;;;;;;0.49;70.45;101873.34;456861;115;922981;-73
2023/01/14 03:01:45;;;;;;;14.67;3.71;;;;;;;0.51;70.42;101865.14;457907;115;922590;-74
2023/01/14 03:02:52;;;;;;;9.93;3.46;;;;;;;0.53;70.47;101871.26;457299;114;922679;-75
2023/01/14 03:04:09;;;;;;;7.22;3.53;;;;;;;0.53;70.37;101868.58;456186;114;922798;-75
2023/01/14 03:05:35;;;;;;;9.42;3.97;;;;;;;0.52;70.15;101870.40;457298;116;922966;-74
2023/01/14 03:06:49;;;;;;;8.51;3.89;;;;;;;0.51;70.09;101867.83;457240;114;922549;-75
2023/01/14 03:08:00;;;;;;;7.01;3.36;;;;;;;0.50;70.10;101863.45;456560;114;922805;-74
2023/01/14 03:09:27;;;;;;;7.35;3.87;;;;;;;0.49;70.13;101869.80;454253;114;922485;-74
2023/01/14 03:10:34;;;;;;;6.94;3.42;;;;;;;0.48;70.15;101860.03;448923;118;922546;-74
2023/01/14 03:11:59;;;;;;;8.17;4.07;;;;;;;0.47;70.27;101866.36;454697;114;922568;-74
2023/01/14 03:13:11;;;;;;;6.93;3.44;;;;;;;0.46;70.20;101860.14;457273;115;922517;-74
2023/01/14 03:14:31;;;;;;;8.71;4.27;;;;;;;0.45;70.08;101862.93;458346;114;922849;-75
2023/01/14 03:15:41;;;;;;;7.64;3.86;;;;;;;0.44;70.16;101861.25;460178;114;923431;-75
2023/01/14 03:17:13;;;;;;;9.45;3.51;;;;;;;0.43;70.14;101864.90;457274;114;922591;-74
2023/01/14 03:18:23;;;;;;;10.05;4.05;;;;;;;0.43;70.20;101864.90;455981;115;922588;-74
2023/01/14 03:19:35;;;;;;;9.53;3.90;;;;;;;0.44;70.21;101861.25;456582;114;922946;-74
2023/01/14 03:20:42;;;;;;;7.92;3.98;;;;;;;0.44;70.09;101866.61;457311;115;923033;-73
2023/01/14 03:21:48;;;;;;;13.14;3.97;;;;;;;0.43;70.09;101864.90;457018;115;922485;-74
2023/01/14 03:22:55;;;;;;;8.22;3.83;;;;;;;0.44;70.17;101858.56;457283;116;922643;-73
2023/01/14 03:24:08;;;;;;;6.00;3.68;;;;;;;0.46;70.10;101864.64;456449;114;922450;-74
2023/01/14 03:25:14;;;;;;;9.61;3.75;;;;;;;0.47;69.99;101863.67;458838;114;922850;-74
2023/01/14 03:26:20;;;;;;;7.04;3.94;;;;;;;0.46;69.88;101865.50;461591;115;922711;-73
2023/01/14 03:27:28;;;;;;;13.61;4.73;;;;;;;0.44;69.75;101858.56;463136;113;922510;-74
2023/01/14 03:28:34;;;;;;;9.23;3.56;;;;;;;0.43;69.86;101855.02;461372;114;923070;-74
2023/01/14 03:29:41;;;;;;;8.47;3.98;;;;;;;0.41;69.64;101862.32;455246;115;922270;-75
2023/01/14 03:30:48;;;;;;;6.91;3.92;;;;;;;0.40;69.68;101860.61;458707;115;922484;-75
2023/01/14 03:31:58;;;;;;;9.70;4.78;;;;;;;0.39;69.56;101865.11;457279;114;922758;-74
2023/01/14 03:33:14;;;;;;;7.30;3.51;;;;;;;0.38;69.68;101859.89;455635;115;922514;-74
2023/01/14 03:34:21;;;;;;;5.78;3.66;;;;;;;0.39;69.65;101866.94;456968;114;922603;-73
2023/01/14 03:35:27;;;;;;;7.62;3.94;;;;;;;0.39;69.53;101864.26;457399;114;922927;-74
2023/01/14 03:36:33;;;;;;;5.86;3.89;;;;;;;0.38;69.62;101862.58;457442;116;922662;-73
2023/01/14 03:37:42;;;;;;;7.72;3.79;;;;;;;0.37;69.49;101861.72;459068;114;922713;-74
2023/01/14 03:38:57;;;;;;;7.34;3.28;;;;;;;0.35;69.56;101863.65;461238;114;922618;-74
2023/01/14 03:40:11;;;;;;;9.63;4.35;;;;;;;0.44;69.56;101867.47;468384;110;1194900;-75
2023/01/14 03:42:17;;;;;;;6.48;3.79;;;;;;;0.34;69.52;101861.94;463540;114;930576;-75
2023/01/14 03:42:26;;;;;;;8.67;4.12;;;;;;;0.37;69.56;101866.22;463510;114;922490;-74
2023/01/14 03:43:35;;;;;;;9.33;3.98;;;;;;;0.38;69.60;101860.75;464649;114;922609;-74
2023/01/14 03:44:51;;;;;;;7.33;3.82;;;;;;;0.41;69.66;101868.55;457393;116;922893;-75
2023/01/14 03:45:55;;;;;;;11.78;4.07;;;;;;;0.43;69.59;101865.75;463050;114;923692;-73
2023/01/14 03:46:59;;;;;;;6.04;3.52;;;;;;;0.46;69.55;101864.64;463763;114;922473;-74
2023/01/14 03:48:03;;;;;;;7.14;3.57;;;;;;;0.45;69.42;101866.47;457567;115;922953;-74
2023/01/14 03:49:06;;;;;;;7.18;3.51;;;;;;;0.45;69.27;101869.16;458250;112;930499;-73
2023/01/14 03:50:13;;;;;;;7.83;3.47;;;;;;;0.43;69.21;101870.27;457402;116;922854;-73
2023/01/14 03:51:35;;;;;;;5.77;3.17;;;;;;;0.40;69.26;101864.15;457463;114;930410;-75
2023/01/14 03:52:44;;;;;;;6.63;3.01;;;;;;;0.40;69.34;101863.29;458527;113;922597;-75
2023/01/14 03:54:00;;;;;;;9.63;4.21;;;;;;;0.39;69.24;101873.16;462448;112;922694;-74
2023/01/14 03:55:31;;;;;;;9.52;4.12;;;;;;;0.37;69.28;101861.72;464154;113;922544;-74
2023/01/14 03:56:40;;;;;;;8.41;3.36;;;;;;;0.38;69.44;101865.26;450676;117;922775;-73
2023/01/14 03:57:47;;;;;;;6.21;3.01;;;;;;;0.37;69.60;101866.22;463590;113;922508;-73
2023/01/14 03:59:00;;;;;;;7.87;3.66;;;;;;;0.36;69.58;101870.73;457681;114;922999;-74
2023/01/14 04:00:07;;;;;;;7.90;4.23;;;;;;;0.36;69.46;101864.51;458057;114;922630;-74
2023/01/14 04:01:31;;;;;;;6.88;4.45;;;;;;;0.35;69.57;101868.16;460717;115;922554;-74
2023/01/14 04:02:37;;;;;;;10.69;3.91;;;;;;;0.34;69.52;101861.94;460260;114;922540;-74
2023/01/14 04:03:41;;;;;;;6.49;4.17;;;;;;;0.32;69.67;101861.22;460511;114;922475;-75
2023/01/14 04:04:46;;;;;;;5.38;3.36;;;;;;;0.32;69.68;101863.90;455945;115;922600;-75
2023/01/14 04:05:51;;;;;;;7.03;3.32;;;;;;;0.33;69.72;101870.13;455576;116;930418;-74
2023/01/14 04:06:54;;;;;;;8.20;4.54;;;;;;;0.33;69.71;101865.58;455728;116;922595;-75
2023/01/14 04:07:59;;;;;;;8.79;4.03;;;;;;;0.34;69.85;101861.94;455915;116;930703;-75
2023/01/14 04:09:05;;;;;;;6.85;3.58;;;;;;;0.35;69.75;101866.33;457305;112;923053;-74
2023/01/14 04:10:09;;;;;;;8.66;3.21;;;;;;;0.37;69.74;101866.22;457591;116;922569;-75
2023/01/14 04:11:12;;;;;;;7.83;3.23;;;;;;;0.38;69.83;101862.58;460404;114;922452;-74
2023/01/14 04:12:15;;;;;;;6.09;3.42;;;;;;;0.39;69.66;101865.11;458201;113;922417;-74
2023/01/14 04:16:01;;;;;;;12.31;3.69;;;;;;;0.41;69.82;101868.55;460806;114;922894;-73
2023/01/14 04:17:04;;;;;;;9.06;4.21;;;;;;;0.40;69.66;101869.52;463832;114;922558;-74
2023/01/14 04:18:07;;;;;;;11.28;3.84;;;;;;;0.41;69.68;101863.18;464376;114;923006;-73
2023/01/14 04:19:10;;;;;;;6.25;3.54;;;;;;;0.43;69.71;101871.13;460808;112;922486;-75
2023/01/14 04:20:14;;;;;;;8.07;3.78;;;;;;;0.43;69.75;101863.07;460820;114;922490;-75
2023/01/14 04:21:17;;;;;;;12.14;4.98;;;;;;;0.44;69.62;101863.93;465443;114;922796;-74
2023/01/14 04:22:21;;;;;;;8.23;4.30;;;;;;;0.45;69.64;101857.56;463196;114;930536;-74
2023/01/14 04:23:24;;;;;;;7.78;4.89;;;;;;;0.45;69.58;101857.56;460961;115;922616;-75
2023/01/14 04:24:27;;;;;;;8.58;3.68;;;;;;;0.46;69.58;101861.96;460268;112;922572;-75
2023/01/14 04:25:30;;;;;;;10.95;3.76;;;;;;;0.48;69.63;101865.39;464808;114;922659;-75
2023/01/14 04:26:33;;;;;;;9.22;3.64;;;;;;;0.48;69.52;101865.39;460770;113;922926;-75
2023/01/14 04:27:36;;;;;;;9.94;3.54;;;;;;;0.47;69.58;101864.53;457617;115;922495;-75
2023/01/14 04:28:40;;;;;;;8.89;3.72;;;;;;;0.46;69.47;101859.28;458152;114;922442;-74
2023/01/14 04:29:43;;;;;;;5.71;3.47;;;;;;;0.44;69.52;101858.56;465659;113;922521;-75
2023/01/14 04:30:48;;;;;;;11.04;3.74;;;;;;;0.44;69.40;101863.93;459203;113;922488;-76
2023/01/14 04:31:51;;;;;;;11.97;4.38;;;;;;;0.45;69.41;101857.56;457384;116;922563;-74
2023/01/14 04:32:54;;;;;;;6.24;3.71;;;;;;;0.46;69.42;101859.28;458117;114;922588;-75
2023/01/14 04:33:57;;;;;;;6.11;3.81;;;;;;;0.47;69.39;101867.22;457926;112;922716;-74
2023/01/14 04:35:00;;;;;;;6.44;3.09;;;;;;;0.47;69.39;101867.22;457622;115;922568;-75
2023/01/14 04:36:04;;;;;;;8.10;3.83;;;;;;;0.48;69.35;101865.39;458229;114;922579;-75
2023/01/14 04:37:10;;;;;;;6.67;4.09;;;;;;;0.48;69.33;101865.39;465546;113;923046;-74
2023/01/14 04:38:13;;;;;;;9.54;4.21;;;;;;;0.46;69.32;101873.55;459325;114;922510;-75
2023/01/14 04:39:16;;;;;;;7.73;3.60;;;;;;;0.46;69.32;101870.02;458111;112;922489;-74
2023/01/14 04:40:19;;;;;;;9.58;3.83;;;;;;;0.47;69.34;101871.73;458173;114;922526;-76
2023/01/14 04:45:54;;;;;;;8.06;3.93;;;;;;;0.46;69.36;101864.64;457560;116;923012;-74
2023/01/14 04:46:57;;;;;;;8.51;3.86;;;;;;;0.37;69.24;101871.59;464086;114;922565;-75
2023/01/14 04:48:00;;;;;;;8.41;3.52;;;;;;;0.31;69.32;101870.23;459089;113;930446;-75
2023/01/14 04:49:03;;;;;;;13.24;4.52;;;;;;;0.29;69.40;101868.63;462420;114;922541;-73
2023/01/14 04:51:29;;;;;;;8.43;3.78;;;;;;;0.28;69.57;101870.45;457449;116;922592;-75
2023/01/14 04:52:33;;;;;;;8.74;4.09;;;;;;;0.27;69.44;101876.81;460509;114;922976;-75
2023/01/14 04:53:36;;;;;;;8.52;4.31;;;;;;;0.25;69.41;101870.70;460183;114;922697;-74
2023/01/14 04:54:39;;;;;;;7.34;4.09;;;;;;;0.25;69.50;101876.06;460973;114;922462;-75
2023/01/14 04:55:45;;;;;;;9.45;3.73;;;;;;;0.24;69.47;101870.80;460204;113;922932;-74
2023/01/14 04:56:48;;;;;;;7.16;3.40;;;;;;;0.23;69.42;101872.62;457914;114;923185;-75
2023/01/14 04:57:51;;;;;;;10.65;4.06;;;;;;;0.22;69.42;101873.59;457607;116;922544;-74
2023/01/14 04:58:54;;;;;;;8.26;3.62;;;;;;;0.21;69.44;101871.91;458657;114;922527;-75
2023/01/14 04:59:57;;;;;;;7.86;3.79;;;;;;;0.22;69.53;101867.41;457566;116;922431;-74
2023/01/14 05:01:01;;;;;;;8.26;4.48;;;;;;;0.21;69.54;101866.55;462930;114;922472;-73
2023/01/14 05:02:04;;;;;;;9.28;4.19;;;;;;;0.20;69.42;101870.19;465128;114;924013;-75
2023/01/14 05:03:09;;;;;;;9.96;3.79;;;;;;;0.21;69.39;101866.55;464963;114;930644;-73
2023/01/14 05:04:12;;;;;;;9.89;4.53;;;;;;;0.20;69.45;101869.34;460175;114;930433;-75
2023/01/14 05:05:15;;;;;;;7.71;4.29;;;;;;;0.19;69.42;101862.25;458203;114;922444;-74
2023/01/14 05:06:18;;;;;;;12.16;4.27;;;;;;;0.20;69.53;101869.34;464237;113;923049;-74
2023/01/14 05:07:21;;;;;;;10.28;4.41;;;;;;;0.19;69.49;101865.80;457612;115;922507;-75
2023/01/14 05:08:24;;;;;;;8.89;4.25;;;;;;;0.17;69.48;101859.68;458953;114;922456;-74
2023/01/14 05:09:28;;;;;;;10.16;4.68;;;;;;;0.16;69.39;101863.36;463060;114;922478;-73
2023/01/14 05:10:31;;;;;;;9.77;4.71;;;;;;;0.17;69.41;101856.14;465708;114;922585;-72
2023/01/14 05:11:34;;;;;;;10.30;4.01;;;;;;;0.16;69.41;101855.31;462645;113;922397;-74
2023/01/14 05:12:38;;;;;;;10.37;4.97;;;;;;;0.16;69.40;101858.00;461277;114;922668;-75
2023/01/14 05:13:41;;;;;;;8.42;3.98;;;;;;;0.16;69.52;101863.36;464100;113;922509;-74
2023/01/14 05:14:44;;;;;;;9.08;5.24;;;;;;;0.17;69.44;101857.00;457569;115;922512;-76
2023/01/14 05:15:47;;;;;;;9.80;4.95;;;;;;;0.18;69.56;101857.86;457749;114;922535;-74
2023/01/14 05:16:50;;;;;;;9.91;4.24;;;;;;;0.19;69.41;101859.57;451477;117;922976;-74
2023/01/14 05:17:53;;;;;;;12.56;5.06;;;;;;;0.17;69.53;101857.00;453420;114;922797;-75
2023/01/14 05:18:56;;;;;;;11.42;4.17;;;;;;;0.18;69.45;101860.54;464865;113;922481;-75
2023/01/14 05:20:00;;;;;;;9.74;4.35;;;;;;;0.19;69.48;101856.89;465669;113;922869;-73
2023/01/14 05:21:03;;;;;;;11.51;4.56;;;;;;;0.18;69.40;101861.40;465704;113;922480;-74